createdAt,value
2022-12-16T00:08:50.283Z,38.25
2022-12-16T00:18:53.410Z,38.32
2022-12-16T00:28:54.983Z,38.16
2022-12-16T00:38:56.453Z,38.18
2022-12-16T00:48:57.892Z,38.21
2022-12-16T00:58:59.416Z,38.08
2022-12-16T01:09:00.847Z,38.15
2022-12-16T01:19:02.633Z,38.08
2022-12-16T01:29:04.040Z,38.13
2022-12-16T01:39:05.562Z,38.16
2022-12-16T01:49:10.256Z,38.15
2022-12-16T01:59:12.384Z,38.19
2022-12-16T02:09:14.030Z,38.12
2022-12-16T02:19:37.345Z,38.25
2022-12-16T02:30:06.586Z,38.18
2022-12-16T02:40:16.357Z,38.27
2022-12-16T02:50:21.010Z,38.18
2022-12-16T03:00:24.590Z,38.35
2022-12-16T03:10:29.245Z,38.14
2022-12-16T03:20:34.941Z,38.26
2022-12-16T03:30:36.728Z,38.31
2022-12-16T03:40:38.561Z,38.32
2022-12-16T03:50:40.008Z,38.17
2022-12-16T04:00:41.427Z,38.16
2022-12-16T04:11:01.250Z,38.10
2022-12-16T04:21:20.976Z,38.46
2022-12-16T04:31:22.521Z,38.19
2022-12-16T04:41:43.721Z,38.28
2022-12-16T04:52:03.910Z,38.23
2022-12-16T05:02:23.763Z,38.22
2022-12-16T05:12:43.988Z,38.14
2022-12-16T05:23:03.825Z,38.14
2022-12-16T05:33:23.491Z,38.02
2022-12-16T05:43:43.196Z,38.00
2022-12-16T05:54:10.739Z,37.98
2022-12-16T06:04:30.443Z,38.00
2022-12-16T06:14:50.186Z,37.86
2022-12-16T06:25:10.182Z,37.93
2022-12-16T06:35:30.098Z,37.92
2022-12-16T06:45:49.884Z,37.92
2022-12-16T06:56:10.095Z,37.89
2022-12-16T07:06:30.049Z,37.88
2022-12-16T07:16:49.866Z,37.90
2022-12-16T07:27:09.972Z,37.72
2022-12-16T07:37:43.713Z,37.86
2022-12-16T07:48:09.646Z,37.91
2022-12-16T07:58:29.487Z,37.74
2022-12-16T08:08:49.482Z,37.79
2022-12-16T08:19:11.375Z,37.23
2022-12-16T08:29:47.136Z,36.75
2022-12-16T08:50:47.101Z,35.80
2022-12-16T09:01:08.134Z,35.38
2022-12-16T09:11:30.009Z,34.90
2022-12-16T09:21:50.117Z,34.61
2022-12-16T09:32:10.204Z,34.42
2022-12-16T09:42:55.514Z,34.22
2022-12-16T09:53:18.441Z,34.12
2022-12-16T10:03:42.871Z,34.10
2022-12-16T10:14:19.430Z,33.94
2022-12-16T10:24:39.676Z,34.04
2022-12-16T10:34:59.356Z,34.31
2022-12-16T10:45:20.226Z,34.56
2022-12-16T10:55:52.464Z,34.70
2022-12-16T11:06:13.115Z,34.82
2022-12-16T11:16:41.181Z,35.08
2022-12-16T11:27:11.367Z,35.11
2022-12-16T11:37:38.337Z,35.50
2022-12-16T11:48:03.166Z,35.41
2022-12-16T11:59:00.947Z,35.64
2022-12-16T12:09:40.403Z,35.65
2022-12-16T12:20:15.079Z,35.80
2022-12-16T12:30:37.321Z,35.93
2022-12-16T12:40:59.752Z,35.87
2022-12-16T12:51:33.488Z,35.96
2022-12-16T13:01:53.255Z,36.06
2022-12-16T13:12:25.521Z,36.10
2022-12-16T13:22:53.096Z,36.26
2022-12-16T13:33:14.277Z,36.29
2022-12-16T13:44:00.540Z,36.66
2022-12-16T13:54:20.619Z,36.67
2022-12-16T14:04:44.745Z,36.87
2022-12-16T14:15:11.230Z,37.25
2022-12-16T14:25:33.064Z,37.31
2022-12-16T14:36:12.640Z,37.49
2022-12-16T14:46:49.301Z,37.68
2022-12-16T14:57:29.126Z,37.98
2022-12-16T15:07:52.295Z,38.04
2022-12-16T15:18:15.444Z,38.19
2022-12-16T15:28:43.781Z,38.36
2022-12-16T15:39:03.631Z,38.35
2022-12-16T15:49:23.652Z,38.38
2022-12-16T16:00:11.684Z,38.91
2022-12-16T16:10:39.832Z,38.81
2022-12-16T16:21:00.081Z,38.87
2022-12-16T16:31:20.445Z,38.38
2022-12-16T16:41:40.635Z,38.30
2022-12-16T16:52:00.271Z,38.04
2022-12-16T17:02:20.663Z,37.88
2022-12-16T17:12:46.091Z,37.85
2022-12-16T17:23:06.047Z,37.82
2022-12-16T17:33:25.808Z,37.79
2022-12-16T17:43:45.588Z,37.65
2022-12-16T17:54:14.579Z,37.51
2022-12-16T18:04:37.441Z,37.50
2022-12-16T18:14:57.233Z,37.57
2022-12-16T18:25:17.252Z,37.57
2022-12-16T18:35:36.980Z,37.43
2022-12-16T18:46:13.731Z,37.43
2022-12-16T18:56:33.516Z,37.39
2022-12-16T19:06:53.307Z,37.36
2022-12-16T19:17:13.345Z,37.52
2022-12-16T19:27:33.151Z,37.63
2022-12-16T19:37:53.769Z,37.68
2022-12-16T19:48:24.129Z,38.01
2022-12-16T19:58:44.131Z,38.22
2022-12-16T20:09:04.076Z,38.42
2022-12-16T20:19:23.870Z,38.53
2022-12-16T20:29:44.025Z,38.73
2022-12-16T20:40:03.795Z,38.67
2022-12-16T20:50:24.172Z,38.55
2022-12-16T21:00:44.112Z,38.51
2022-12-16T21:11:04.217Z,38.20
2022-12-16T21:21:24.563Z,38.07
2022-12-16T21:31:44.464Z,38.12
2022-12-16T21:42:20.952Z,38.10
2022-12-16T21:52:40.747Z,37.99
2022-12-16T22:03:03.212Z,37.86
2022-12-16T22:13:23.294Z,37.81
2022-12-16T22:23:49.122Z,37.88
2022-12-16T22:34:09.295Z,37.69
2022-12-16T22:44:29.434Z,37.71
2022-12-16T22:54:49.691Z,37.63
2022-12-16T23:05:09.610Z,37.66
2022-12-16T23:15:30.458Z,37.68
2022-12-16T23:25:50.345Z,37.76
2022-12-16T23:36:09.954Z,37.60
2022-12-16T23:46:30.034Z,37.58
2022-12-16T23:56:50.556Z,37.67
